createdAt,value
2018-03-30T00:00:33.575Z,999.83
2018-03-30T00:01:33.497Z,999.77
2018-03-30T00:02:33.429Z,999.78
2018-03-30T00:03:33.339Z,999.76
2018-03-30T00:04:33.257Z,999.77
2018-03-30T00:05:33.180Z,999.72
2018-03-30T00:06:33.094Z,999.74
2018-03-30T00:07:33.015Z,999.76
2018-03-30T00:08:32.935Z,999.72
2018-03-30T00:09:32.855Z,999.72
2018-03-30T00:10:32.773Z,999.76
2018-03-30T00:11:32.695Z,999.75
2018-03-30T00:12:32.613Z,999.76
2018-03-30T00:13:32.542Z,999.72
2018-03-30T00:14:32.456Z,999.72
2018-03-30T00:15:32.380Z,999.69
2018-03-30T00:16:32.296Z,999.69
2018-03-30T00:17:32.213Z,999.69
2018-03-30T00:18:32.135Z,999.68
2018-03-30T00:19:32.052Z,999.65
2018-03-30T00:20:31.972Z,999.70
2018-03-30T00:21:31.892Z,999.72
2018-03-30T00:22:31.812Z,999.64
2018-03-30T00:23:31.733Z,999.65
2018-03-30T00:24:31.654Z,999.67
2018-03-30T00:25:31.597Z,999.67
2018-03-30T00:26:31.493Z,999.62
2018-03-30T00:27:31.416Z,999.66
2018-03-30T00:28:31.331Z,999.58
2018-03-30T00:29:31.253Z,999.63
2018-03-30T00:30:31.211Z,999.59
2018-03-30T00:31:31.093Z,999.62
2018-03-30T00:32:31.007Z,999.58
2018-03-30T00:33:30.931Z,999.65
2018-03-30T00:34:30.850Z,999.60
2018-03-30T00:35:30.770Z,999.63
2018-03-30T00:36:30.692Z,999.58
2018-03-30T00:37:30.604Z,999.61
2018-03-30T00:38:30.527Z,999.63
2018-03-30T00:39:30.448Z,999.60
2018-03-30T00:40:30.368Z,999.59
2018-03-30T00:41:30.286Z,999.60
2018-03-30T00:42:30.217Z,999.57
2018-03-30T00:43:30.128Z,999.56
2018-03-30T00:44:30.049Z,999.55
2018-03-30T00:45:29.971Z,999.52
2018-03-30T00:46:29.887Z,999.48
2018-03-30T00:47:29.807Z,999.44
2018-03-30T00:48:29.726Z,999.42
2018-03-30T00:49:29.645Z,999.47
2018-03-30T00:50:29.566Z,999.43
2018-03-30T00:51:29.486Z,999.41
2018-03-30T00:52:29.400Z,999.40
2018-03-30T00:53:29.327Z,999.40
2018-03-30T00:54:29.248Z,999.40
2018-03-30T00:55:29.176Z,999.43
2018-03-30T00:56:29.084Z,999.41
2018-03-30T00:57:29.013Z,999.35
2018-03-30T00:58:28.945Z,999.38
2018-03-30T00:59:28.848Z,999.36
2018-03-30T01:00:28.764Z,999.36
2018-03-30T01:01:28.678Z,999.36
2018-03-30T01:02:28.602Z,999.38
2018-03-30T01:03:28.528Z,999.40
2018-03-30T01:04:28.442Z,999.39
2018-03-30T01:05:28.383Z,999.38
2018-03-30T01:06:28.282Z,999.34
2018-03-30T01:07:28.200Z,999.33
2018-03-30T01:08:28.120Z,999.38
2018-03-30T01:09:28.040Z,999.36
2018-03-30T01:10:27.974Z,999.35
2018-03-30T01:11:27.879Z,999.33
2018-03-30T01:12:27.798Z,999.34
2018-03-30T01:13:27.718Z,999.33
2018-03-30T01:14:27.639Z,999.31
2018-03-30T01:15:27.558Z,999.34
2018-03-30T01:16:27.476Z,999.36
2018-03-30T01:17:27.470Z,999.33
2018-03-30T01:18:27.318Z,999.37
2018-03-30T01:19:27.239Z,999.33
2018-03-30T01:20:27.156Z,999.31
2018-03-30T01:21:27.078Z,999.31
2018-03-30T01:22:26.996Z,999.28
2018-03-30T01:23:26.917Z,999.26
2018-03-30T01:24:26.833Z,999.21
2018-03-30T01:25:26.754Z,999.25
2018-03-30T01:26:26.678Z,999.26
2018-03-30T01:27:26.602Z,999.25
2018-03-30T01:28:26.514Z,999.24
2018-03-30T01:29:26.438Z,999.28
2018-03-30T01:30:26.354Z,999.25
2018-03-30T01:31:26.275Z,999.17
2018-03-30T01:32:26.201Z,999.22
2018-03-30T01:33:26.112Z,999.23
2018-03-30T01:34:26.031Z,999.19
2018-03-30T01:35:25.951Z,999.16
2018-03-30T01:36:25.872Z,999.17
2018-03-30T01:37:25.791Z,999.21
2018-03-30T01:38:25.708Z,999.16
2018-03-30T01:39:25.662Z,999.17
2018-03-30T01:40:25.549Z,999.13
2018-03-30T01:41:25.469Z,999.12
2018-03-30T01:42:25.389Z,999.15
2018-03-30T01:43:25.309Z,999.17
2018-03-30T01:44:25.251Z,999.12
2018-03-30T01:45:25.146Z,999.11
2018-03-30T01:46:25.075Z,999.14
2018-03-30T01:47:24.989Z,999.12
2018-03-30T01:48:24.906Z,999.10
2018-03-30T01:49:24.826Z,999.08
2018-03-30T01:50:24.804Z,999.07
2018-03-30T01:51:24.659Z,999.06
2018-03-30T01:52:24.584Z,999.06
2018-03-30T01:53:24.504Z,999.09
2018-03-30T01:54:24.424Z,999.08
2018-03-30T01:55:24.343Z,999.06
2018-03-30T01:56:24.263Z,999.05
2018-03-30T01:57:24.182Z,999.06
2018-03-30T01:58:24.102Z,999.05
2018-03-30T01:59:24.024Z,999.06
2018-03-30T02:00:23.940Z,999.05
2018-03-30T02:01:23.862Z,998.99
2018-03-30T02:02:23.781Z,998.99
2018-03-30T02:03:23.708Z,999.02
2018-03-30T02:04:23.620Z,998.99
2018-03-30T02:05:23.540Z,998.98
2018-03-30T02:06:23.468Z,998.99
2018-03-30T02:07:23.380Z,998.94
2018-03-30T02:08:23.300Z,998.97
2018-03-30T02:09:23.219Z,998.96
2018-03-30T02:10:23.143Z,998.94
2018-03-30T02:11:23.059Z,998.93
2018-03-30T02:12:22.979Z,998.93
2018-03-30T02:13:22.897Z,998.94
2018-03-30T02:14:22.822Z,998.89
2018-03-30T02:15:22.737Z,998.95
2018-03-30T02:16:22.656Z,998.94
2018-03-30T02:17:22.574Z,998.89
2018-03-30T02:18:22.497Z,998.85
2018-03-30T02:19:22.416Z,998.87
2018-03-30T02:20:22.363Z,998.83
2018-03-30T02:21:22.259Z,998.80
2018-03-30T02:22:22.185Z,998.83
2018-03-30T02:23:22.098Z,998.81
2018-03-30T02:24:22.015Z,998.79
2018-03-30T02:25:21.948Z,998.73
2018-03-30T02:26:21.853Z,998.70
2018-03-30T02:27:21.774Z,998.71
2018-03-30T02:28:21.695Z,998.68
2018-03-30T02:29:21.608Z,998.69
2018-03-30T02:30:21.552Z,998.64
2018-03-30T02:31:21.458Z,998.66
2018-03-30T02:32:21.381Z,998.65
2018-03-30T02:33:21.290Z,998.70
2018-03-30T02:34:21.218Z,998.67
2018-03-30T02:35:21.130Z,998.63
2018-03-30T02:36:21.051Z,998.64
2018-03-30T02:37:20.971Z,998.62
2018-03-30T02:38:20.888Z,998.64
2018-03-30T02:39:20.821Z,998.63
2018-03-30T02:40:20.727Z,998.62
2018-03-30T02:41:20.648Z,998.62
2018-03-30T02:42:20.565Z,998.61
2018-03-30T02:43:20.490Z,998.61
2018-03-30T02:44:20.406Z,998.63
2018-03-30T02:45:20.325Z,998.63
2018-03-30T02:46:20.245Z,998.60
2018-03-30T02:47:20.168Z,998.58
2018-03-30T02:48:20.086Z,998.56
2018-03-30T02:49:20.004Z,998.57
2018-03-30T02:50:19.922Z,998.54
2018-03-30T02:51:19.840Z,998.54
2018-03-30T02:52:19.763Z,998.53
2018-03-30T02:53:19.682Z,998.51
2018-03-30T02:54:19.610Z,998.52
2018-03-30T02:55:19.520Z,998.54
2018-03-30T02:56:19.438Z,998.51
2018-03-30T02:57:19.360Z,998.52
2018-03-30T02:58:19.280Z,998.48
2018-03-30T02:59:19.202Z,998.49
2018-03-30T03:00:19.119Z,998.49
2018-03-30T03:01:19.038Z,998.52
2018-03-30T03:02:18.963Z,998.54
2018-03-30T03:03:18.878Z,998.50
2018-03-30T03:04:18.795Z,998.51
2018-03-30T03:05:18.714Z,998.56
2018-03-30T03:06:18.633Z,998.47
2018-03-30T03:07:18.553Z,998.49
2018-03-30T03:08:18.472Z,998.48
2018-03-30T03:09:18.393Z,998.46
2018-03-30T03:10:18.311Z,998.48
2018-03-30T03:11:18.232Z,998.49
2018-03-30T03:12:18.151Z,998.47
2018-03-30T03:13:18.080Z,998.46
2018-03-30T03:14:17.987Z,998.44
2018-03-30T03:15:17.908Z,998.45
2018-03-30T03:16:17.829Z,998.42
2018-03-30T03:17:17.747Z,998.42
2018-03-30T03:18:17.668Z,998.40
2018-03-30T03:19:17.587Z,998.41
2018-03-30T03:20:17.510Z,998.41
2018-03-30T03:21:17.425Z,998.38
2018-03-30T03:22:17.347Z,998.39
2018-03-30T03:23:17.264Z,998.36
2018-03-30T03:24:17.181Z,998.34
2018-03-30T03:25:17.104Z,998.35
2018-03-30T03:26:17.022Z,998.33
2018-03-30T03:27:16.938Z,998.32
2018-03-30T03:28:16.859Z,998.27
2018-03-30T03:29:16.779Z,998.27
2018-03-30T03:30:16.706Z,998.31
2018-03-30T03:31:16.660Z,998.27
2018-03-30T03:32:16.538Z,998.24
2018-03-30T03:33:16.457Z,998.26
2018-03-30T03:34:16.377Z,998.28
2018-03-30T03:35:16.296Z,998.26
2018-03-30T03:36:16.213Z,998.25
2018-03-30T03:37:16.137Z,998.20
2018-03-30T03:38:16.055Z,998.21
2018-03-30T03:39:15.980Z,998.17
2018-03-30T03:40:15.891Z,998.18
2018-03-30T03:41:15.813Z,998.24
2018-03-30T03:42:15.731Z,998.12
2018-03-30T03:43:15.655Z,998.11
2018-03-30T03:44:15.573Z,998.11
2018-03-30T03:45:15.492Z,998.08
2018-03-30T03:46:15.413Z,998.04
2018-03-30T03:47:15.334Z,998.09
2018-03-30T03:48:15.252Z,998.04
2018-03-30T03:49:15.168Z,998.07
2018-03-30T03:50:15.091Z,998.08
2018-03-30T03:51:15.009Z,998.03
2018-03-30T03:52:14.931Z,998.04
2018-03-30T03:53:14.847Z,998.06
2018-03-30T03:54:14.766Z,998.05
2018-03-30T03:55:14.686Z,998.03
2018-03-30T03:56:14.603Z,997.99
2018-03-30T03:57:14.522Z,998.05
2018-03-30T03:58:14.444Z,998.05
2018-03-30T03:59:14.364Z,997.99
2018-03-30T04:00:14.284Z,997.99
2018-03-30T04:01:14.202Z,998.01
2018-03-30T04:02:14.124Z,998.00
2018-03-30T04:03:14.041Z,998.01
2018-03-30T04:04:13.960Z,998.00
2018-03-30T04:05:13.881Z,997.99
2018-03-30T04:06:13.804Z,997.99
2018-03-30T04:07:13.719Z,997.99
2018-03-30T04:08:13.639Z,997.99
2018-03-30T04:09:13.559Z,997.97
2018-03-30T04:10:13.485Z,998.03
2018-03-30T04:11:13.396Z,998.04
2018-03-30T04:12:13.316Z,998.09
2018-03-30T04:13:13.237Z,998.07
2018-03-30T04:14:13.159Z,998.06
2018-03-30T04:15:13.075Z,998.06
2018-03-30T04:16:12.996Z,998.10
2018-03-30T04:17:12.913Z,998.05
2018-03-30T04:18:12.833Z,998.07
2018-03-30T04:19:12.749Z,998.09
2018-03-30T04:20:12.672Z,998.08
2018-03-30T04:21:12.596Z,998.07
2018-03-30T04:22:12.506Z,998.07
2018-03-30T04:23:12.432Z,998.02
2018-03-30T04:24:12.349Z,998.03
2018-03-30T04:25:12.274Z,997.96
2018-03-30T04:26:12.193Z,998.01
2018-03-30T04:27:12.161Z,998.02
2018-03-30T04:28:12.025Z,998.02
2018-03-30T04:29:11.951Z,997.97
2018-03-30T04:30:11.869Z,998.00
2018-03-30T04:31:11.791Z,998.06
2018-03-30T04:32:11.709Z,998.06
2018-03-30T04:33:11.627Z,998.02
2018-03-30T04:34:11.547Z,998.02
2018-03-30T04:35:11.466Z,998.03
2018-03-30T04:36:11.385Z,998.01
2018-03-30T04:37:11.306Z,998.06
2018-03-30T04:38:11.224Z,998.05
2018-03-30T04:39:11.144Z,998.05
2018-03-30T04:40:11.062Z,998.05
2018-03-30T04:41:10.985Z,998.04
2018-03-30T04:42:10.902Z,998.05
2018-03-30T04:43:10.827Z,998.05
2018-03-30T04:44:10.744Z,998.08
2018-03-30T04:45:10.666Z,998.05
2018-03-30T04:46:10.583Z,998.06
2018-03-30T04:47:10.513Z,998.06
2018-03-30T04:48:10.421Z,998.06
2018-03-30T04:49:10.340Z,998.01
2018-03-30T04:50:10.262Z,998.01
2018-03-30T04:51:10.180Z,998.02
2018-03-30T04:52:10.100Z,997.96
2018-03-30T04:53:10.019Z,998.00
2018-03-30T04:54:09.940Z,998.00
2018-03-30T04:55:09.859Z,998.01
2018-03-30T04:56:09.778Z,997.91
2018-03-30T04:57:09.696Z,997.91
2018-03-30T04:58:09.616Z,997.92
2018-03-30T04:59:09.541Z,997.88
2018-03-30T05:00:09.458Z,997.82
2018-03-30T05:01:09.376Z,997.86
2018-03-30T05:02:09.296Z,997.87
2018-03-30T05:03:09.223Z,997.81
2018-03-30T05:04:09.138Z,997.75
2018-03-30T05:05:09.058Z,997.73
2018-03-30T05:06:08.976Z,997.74
2018-03-30T05:07:08.895Z,997.78
2018-03-30T05:08:08.816Z,997.71
2018-03-30T05:09:08.734Z,997.69
2018-03-30T05:10:08.655Z,997.73
2018-03-30T05:11:08.574Z,997.65
2018-03-30T05:12:08.491Z,997.66
2018-03-30T05:13:08.416Z,997.68
2018-03-30T05:14:08.337Z,997.71
2018-03-30T05:15:08.253Z,997.72
2018-03-30T05:16:08.170Z,997.70
2018-03-30T05:17:08.092Z,997.69
2018-03-30T05:18:08.014Z,997.76
2018-03-30T05:19:07.932Z,997.77
2018-03-30T05:20:07.851Z,997.77
2018-03-30T05:21:07.770Z,997.81
2018-03-30T05:22:07.716Z,997.83
2018-03-30T05:23:07.610Z,997.84
2018-03-30T05:24:07.533Z,997.91
2018-03-30T05:25:07.449Z,997.90
2018-03-30T05:26:07.370Z,997.88
2018-03-30T05:27:07.291Z,997.87
2018-03-30T05:28:07.214Z,997.87
2018-03-30T05:29:07.130Z,997.89
2018-03-30T05:30:07.050Z,997.82
2018-03-30T05:31:06.969Z,997.83
2018-03-30T05:32:06.890Z,997.82
2018-03-30T05:33:06.851Z,997.88
2018-03-30T05:34:06.728Z,997.81
2018-03-30T05:35:06.652Z,997.81
2018-03-30T05:36:06.569Z,997.80
2018-03-30T05:37:06.491Z,997.77
2018-03-30T05:38:06.408Z,997.75
2018-03-30T05:39:06.329Z,997.78
2018-03-30T05:40:06.246Z,997.79
2018-03-30T05:41:06.169Z,997.76
2018-03-30T05:42:06.086Z,997.78
2018-03-30T05:43:06.002Z,997.74
2018-03-30T05:44:05.927Z,997.76
2018-03-30T05:45:05.849Z,997.76
2018-03-30T05:46:05.768Z,997.74
2018-03-30T05:47:05.688Z,997.76
2018-03-30T05:48:05.607Z,997.79
2018-03-30T05:49:05.527Z,997.75
2018-03-30T05:50:05.446Z,997.73
2018-03-30T05:51:05.369Z,997.71
2018-03-30T05:52:05.287Z,997.71
2018-03-30T05:53:05.209Z,997.70
2018-03-30T05:54:05.129Z,997.70
2018-03-30T05:55:05.051Z,997.74
2018-03-30T05:56:04.966Z,997.69
2018-03-30T05:57:04.893Z,997.72
2018-03-30T05:58:04.809Z,997.67
2018-03-30T05:59:04.729Z,997.65
2018-03-30T06:00:04.648Z,997.70
2018-03-30T06:01:04.571Z,997.70
2018-03-30T06:02:04.489Z,997.70
2018-03-30T06:03:04.410Z,997.72
2018-03-30T06:04:04.329Z,997.70
2018-03-30T06:05:04.264Z,997.74
2018-03-30T06:06:04.170Z,997.72
2018-03-30T06:07:04.091Z,997.74
2018-03-30T06:08:04.044Z,997.74
2018-03-30T06:09:03.931Z,997.75
2018-03-30T06:10:03.854Z,997.77
2018-03-30T06:11:03.772Z,997.77
2018-03-30T06:12:03.692Z,997.75
2018-03-30T06:13:03.613Z,997.82
2018-03-30T06:14:03.559Z,997.77
2018-03-30T06:15:03.455Z,997.82
2018-03-30T06:16:03.375Z,997.82
2018-03-30T06:17:03.301Z,997.80
2018-03-30T06:18:03.215Z,997.82
2018-03-30T06:19:03.144Z,997.86
2018-03-30T06:20:03.058Z,997.79
2018-03-30T06:21:02.974Z,997.84
2018-03-30T06:22:02.896Z,997.85
2018-03-30T06:23:02.823Z,997.78
2018-03-30T06:24:02.738Z,997.81
2018-03-30T06:25:02.659Z,997.77
2018-03-30T06:26:02.579Z,997.80
2018-03-30T06:27:02.501Z,997.78
2018-03-30T06:28:02.417Z,997.74
2018-03-30T06:29:02.342Z,997.77
2018-03-30T06:30:02.268Z,997.75
2018-03-30T06:31:02.181Z,997.73
2018-03-30T06:32:02.104Z,997.76
2018-03-30T06:33:02.022Z,997.75
2018-03-30T06:34:01.946Z,997.71
2018-03-30T06:35:01.869Z,997.74
2018-03-30T06:36:01.785Z,997.74
2018-03-30T06:37:01.706Z,997.76
2018-03-30T06:38:01.634Z,997.74
2018-03-30T06:39:01.549Z,997.71
2018-03-30T06:40:01.468Z,997.71
2018-03-30T06:41:01.391Z,997.72
2018-03-30T06:42:01.318Z,997.76
2018-03-30T06:43:01.233Z,997.72
2018-03-30T06:44:01.152Z,997.73
2018-03-30T06:45:01.074Z,997.68
2018-03-30T06:46:00.998Z,997.71
2018-03-30T06:47:00.916Z,997.75
2018-03-30T06:48:00.836Z,997.76
2018-03-30T06:49:00.763Z,997.75
2018-03-30T06:50:00.678Z,997.78
2018-03-30T06:51:00.599Z,997.81
2018-03-30T06:52:00.522Z,997.75
2018-03-30T06:53:00.446Z,997.80
2018-03-30T06:54:00.364Z,997.77
2018-03-30T06:55:00.283Z,997.76
2018-03-30T06:56:00.204Z,997.76
2018-03-30T06:57:00.125Z,997.74
2018-03-30T06:58:00.048Z,997.78
2018-03-30T06:58:59.970Z,997.73
2018-03-30T06:59:59.891Z,997.75
2018-03-30T07:00:59.809Z,997.77
2018-03-30T07:01:59.731Z,997.78
2018-03-30T07:02:59.652Z,997.77
2018-03-30T07:03:59.569Z,997.78
2018-03-30T07:04:59.493Z,997.75
2018-03-30T07:05:59.417Z,997.77
2018-03-30T07:06:59.338Z,997.77
2018-03-30T07:07:59.257Z,997.78
2018-03-30T07:08:59.178Z,997.78
2018-03-30T07:09:59.101Z,997.75
2018-03-30T07:10:59.022Z,997.75
2018-03-30T07:11:58.945Z,997.76
2018-03-30T07:12:58.864Z,997.76
2018-03-30T07:13:58.784Z,997.71
2018-03-30T07:14:58.707Z,997.73
2018-03-30T07:15:58.628Z,997.66
2018-03-30T07:16:58.549Z,997.69
2018-03-30T07:17:58.471Z,997.68
2018-03-30T07:18:58.396Z,997.69
2018-03-30T07:19:58.317Z,997.68
2018-03-30T07:20:58.235Z,997.71
2018-03-30T07:21:58.152Z,997.69
2018-03-30T07:22:58.083Z,997.71
2018-03-30T07:23:57.998Z,997.72
2018-03-30T07:24:57.923Z,997.69
2018-03-30T07:25:57.844Z,997.69
2018-03-30T07:26:57.765Z,997.68
2018-03-30T07:27:57.690Z,997.66
2018-03-30T07:28:57.608Z,997.57
2018-03-30T07:29:57.529Z,997.56
2018-03-30T07:30:57.453Z,997.51
2018-03-30T07:31:57.373Z,997.56
2018-03-30T07:32:57.295Z,997.53
2018-03-30T07:33:57.223Z,997.56
2018-03-30T07:34:57.142Z,997.52
2018-03-30T07:35:57.060Z,997.51
2018-03-30T07:36:56.982Z,997.55
2018-03-30T07:37:56.907Z,997.50
2018-03-30T07:38:56.828Z,997.55
2018-03-30T07:39:56.751Z,997.51
2018-03-30T07:40:56.671Z,997.54
2018-03-30T07:41:56.594Z,997.52
2018-03-30T07:42:56.518Z,997.57
2018-03-30T07:43:56.439Z,997.50
2018-03-30T07:44:56.363Z,997.42
2018-03-30T07:45:56.287Z,997.41
2018-03-30T07:46:56.205Z,997.38
2018-03-30T07:47:56.130Z,997.40
2018-03-30T07:48:56.055Z,997.39
2018-03-30T07:49:55.978Z,997.35
2018-03-30T07:50:55.898Z,997.36
2018-03-30T07:51:55.822Z,997.35
2018-03-30T07:52:55.744Z,997.30
2018-03-30T07:53:55.668Z,997.33
2018-03-30T07:54:55.592Z,997.32
2018-03-30T07:55:55.516Z,997.27
2018-03-30T07:56:55.438Z,997.28
2018-03-30T07:57:55.362Z,997.34
2018-03-30T07:58:55.284Z,997.32
2018-03-30T07:59:55.218Z,997.32
2018-03-30T08:00:55.136Z,997.27
2018-03-30T08:01:55.056Z,997.31
2018-03-30T08:02:54.994Z,997.32
2018-03-30T08:03:54.902Z,997.28
2018-03-30T08:04:54.826Z,997.31
2018-03-30T08:05:54.752Z,997.30
2018-03-30T08:06:54.675Z,997.25
2018-03-30T08:07:54.602Z,997.26
2018-03-30T08:08:54.521Z,997.24
2018-03-30T08:09:54.447Z,997.24
2018-03-30T08:10:54.370Z,997.17
2018-03-30T08:11:54.292Z,997.12
2018-03-30T08:12:54.219Z,997.09
2018-03-30T08:13:54.141Z,997.16
2018-03-30T08:14:54.066Z,997.15
2018-03-30T08:15:53.997Z,997.10
2018-03-30T08:16:53.914Z,997.19
2018-03-30T08:17:53.841Z,997.12
2018-03-30T08:18:53.766Z,997.14
2018-03-30T08:19:53.693Z,997.10
2018-03-30T08:20:53.613Z,997.15
2018-03-30T08:21:53.538Z,997.11
2018-03-30T08:22:53.462Z,997.07
2018-03-30T08:23:53.386Z,997.07
2018-03-30T08:24:53.311Z,997.03
2018-03-30T08:25:53.236Z,997.00
2018-03-30T08:26:53.163Z,997.00
2018-03-30T08:27:53.087Z,996.94
2018-03-30T08:28:53.012Z,996.97
2018-03-30T08:29:52.940Z,997.00
2018-03-30T08:30:52.878Z,996.97
2018-03-30T08:31:52.791Z,996.93
2018-03-30T08:32:52.722Z,996.91
2018-03-30T08:33:52.638Z,996.89
2018-03-30T08:34:52.564Z,996.88
2018-03-30T08:35:52.492Z,996.89
2018-03-30T08:36:52.418Z,996.83
2018-03-30T08:37:52.344Z,996.85
2018-03-30T08:38:52.266Z,996.84
2018-03-30T08:39:52.197Z,996.93
2018-03-30T08:40:52.128Z,996.90
2018-03-30T08:41:52.055Z,996.93
2018-03-30T08:42:51.978Z,996.92
2018-03-30T08:43:51.904Z,996.88
2018-03-30T08:44:51.834Z,996.93
2018-03-30T08:45:51.760Z,996.86
2018-03-30T08:46:51.688Z,996.86
2018-03-30T08:47:51.612Z,996.79
2018-03-30T08:48:51.540Z,996.89
2018-03-30T08:49:51.468Z,996.85
2018-03-30T08:50:51.396Z,996.82
2018-03-30T08:51:51.324Z,996.82
2018-03-30T08:52:51.252Z,996.80
2018-03-30T08:53:51.180Z,996.78
2018-03-30T08:54:51.108Z,996.72
2018-03-30T08:55:51.033Z,996.77
2018-03-30T08:56:50.964Z,996.77
2018-03-30T08:57:50.895Z,996.70
2018-03-30T08:58:50.823Z,996.70
2018-03-30T08:59:50.750Z,996.72
2018-03-30T09:00:50.678Z,996.69
2018-03-30T09:01:50.607Z,996.67
2018-03-30T09:02:50.537Z,996.72
2018-03-30T09:03:50.467Z,996.77
2018-03-30T09:04:50.396Z,996.75
2018-03-30T09:05:50.325Z,996.70
2018-03-30T09:06:50.263Z,996.70
2018-03-30T09:07:50.186Z,996.62
2018-03-30T09:08:50.115Z,996.68
2018-03-30T09:09:50.045Z,996.68
2018-03-30T09:10:49.975Z,996.63
2018-03-30T09:11:49.913Z,996.62
2018-03-30T09:12:49.836Z,996.68
2018-03-30T09:13:49.766Z,996.65
2018-03-30T09:14:49.696Z,996.67
2018-03-30T09:15:49.626Z,996.66
2018-03-30T09:16:49.558Z,996.64
2018-03-30T09:17:49.492Z,996.61
2018-03-30T09:18:49.419Z,996.57
2018-03-30T09:19:49.350Z,996.52
2018-03-30T09:20:49.280Z,996.55
2018-03-30T09:21:49.210Z,996.56
2018-03-30T09:22:49.144Z,996.53
2018-03-30T09:23:49.074Z,996.51
2018-03-30T09:24:49.005Z,996.55
2018-03-30T09:25:48.934Z,996.47
2018-03-30T09:26:48.868Z,996.49
2018-03-30T09:27:48.800Z,996.49
2018-03-30T09:28:48.730Z,996.53
2018-03-30T09:29:48.659Z,996.47
2018-03-30T09:30:48.593Z,996.47
2018-03-30T09:31:48.525Z,996.44
2018-03-30T09:32:48.454Z,996.38
2018-03-30T09:33:48.393Z,996.36
2018-03-30T09:34:48.340Z,996.41
2018-03-30T09:35:48.323Z,996.41
2018-03-30T09:36:48.182Z,996.36
2018-03-30T09:37:48.116Z,996.37
2018-03-30T09:38:48.052Z,996.32
2018-03-30T09:39:47.978Z,996.30
2018-03-30T09:40:47.912Z,996.36
2018-03-30T09:41:47.844Z,996.26
2018-03-30T09:42:47.776Z,996.24
2018-03-30T09:43:47.708Z,996.30
2018-03-30T09:44:47.638Z,996.32
2018-03-30T09:45:47.574Z,996.35
2018-03-30T09:46:47.504Z,996.29
2018-03-30T09:47:47.434Z,996.27
2018-03-30T09:48:47.371Z,996.27
2018-03-30T09:49:47.299Z,996.24
2018-03-30T09:50:47.230Z,996.19
2018-03-30T09:51:47.164Z,996.25
2018-03-30T09:52:47.097Z,996.20
2018-03-30T09:53:47.026Z,996.21
2018-03-30T09:54:46.957Z,996.18
2018-03-30T09:55:46.890Z,996.15
2018-03-30T09:56:46.822Z,996.14
2018-03-30T09:57:46.753Z,996.18
2018-03-30T09:58:46.686Z,996.21
2018-03-30T09:59:46.618Z,996.14
2018-03-30T10:00:46.550Z,996.14
2018-03-30T10:01:46.484Z,996.11
2018-03-30T10:02:46.417Z,996.09
2018-03-30T10:03:46.348Z,996.12
2018-03-30T10:04:46.279Z,996.08
2018-03-30T10:05:46.212Z,996.02
2018-03-30T10:06:46.151Z,995.97
2018-03-30T10:07:46.077Z,996.07
2018-03-30T10:08:46.010Z,995.95
2018-03-30T10:09:45.943Z,995.97
2018-03-30T10:10:45.876Z,996.02
2018-03-30T10:11:45.813Z,995.97
2018-03-30T10:12:45.739Z,995.89
2018-03-30T10:13:45.669Z,995.93
2018-03-30T10:14:45.608Z,995.87
2018-03-30T10:15:45.536Z,995.82
2018-03-30T10:16:45.470Z,995.75
2018-03-30T10:17:45.403Z,995.83
2018-03-30T10:18:45.340Z,995.84
2018-03-30T10:19:45.265Z,995.70
2018-03-30T10:20:45.198Z,995.79
2018-03-30T10:21:45.130Z,995.74
2018-03-30T10:22:45.061Z,995.70
2018-03-30T10:23:44.999Z,995.67
2018-03-30T10:24:44.925Z,995.61
2018-03-30T10:25:44.857Z,995.57
2018-03-30T10:26:44.795Z,995.51
2018-03-30T10:27:44.719Z,995.48
2018-03-30T10:28:44.652Z,995.43
2018-03-30T10:29:44.584Z,995.39
2018-03-30T10:30:44.516Z,995.32
2018-03-30T10:31:44.446Z,995.31
2018-03-30T10:32:44.379Z,995.31
2018-03-30T10:33:44.308Z,995.37
2018-03-30T10:34:44.240Z,995.24
2018-03-30T10:35:44.177Z,995.26
2018-03-30T10:36:44.102Z,995.13
2018-03-30T10:37:44.035Z,995.15
2018-03-30T10:38:43.963Z,995.09
2018-03-30T10:39:43.896Z,995.12
2018-03-30T10:40:43.828Z,995.09
2018-03-30T10:41:43.763Z,995.02
2018-03-30T10:42:43.693Z,994.94
2018-03-30T10:43:43.620Z,994.89
2018-03-30T10:44:43.553Z,994.86
2018-03-30T10:45:43.482Z,994.84
2018-03-30T10:46:43.417Z,994.77
2018-03-30T10:47:43.338Z,994.82
2018-03-30T10:48:43.319Z,994.75
2018-03-30T10:49:43.203Z,994.72
2018-03-30T10:50:43.136Z,994.67
2018-03-30T10:51:43.069Z,994.61
2018-03-30T10:52:42.997Z,994.60
2018-03-30T10:53:42.924Z,994.57
2018-03-30T10:54:42.855Z,994.57
2018-03-30T10:55:42.782Z,994.48
2018-03-30T10:56:42.718Z,994.52
2018-03-30T10:57:42.645Z,994.48
2018-03-30T10:58:42.576Z,994.50
2018-03-30T10:59:42.504Z,994.43
2018-03-30T11:00:42.437Z,994.43
2018-03-30T11:01:42.363Z,994.37
2018-03-30T11:02:42.295Z,994.34
2018-03-30T11:03:42.224Z,994.27
2018-03-30T11:04:42.160Z,994.28
2018-03-30T11:05:42.083Z,994.19
2018-03-30T11:06:42.014Z,994.22
2018-03-30T11:07:41.933Z,994.21
2018-03-30T11:08:41.868Z,994.17
2018-03-30T11:09:41.796Z,994.13
2018-03-30T11:10:41.735Z,994.07
2018-03-30T11:11:41.676Z,994.06
2018-03-30T11:12:41.585Z,994.03
2018-03-30T11:13:41.516Z,994.04
2018-03-30T11:14:41.448Z,994.02
2018-03-30T11:15:41.374Z,994.06
2018-03-30T11:16:41.302Z,994.10
2018-03-30T11:17:41.241Z,994.08
2018-03-30T11:18:41.170Z,994.12
2018-03-30T11:19:41.100Z,994.22
2018-03-30T11:20:41.024Z,994.33
2018-03-30T11:21:40.956Z,994.30
2018-03-30T11:22:40.886Z,994.40
2018-03-30T11:23:40.812Z,994.35
2018-03-30T11:24:40.791Z,994.40
2018-03-30T11:25:40.674Z,994.47
2018-03-30T11:26:40.608Z,994.29
2018-03-30T11:27:40.539Z,994.33
2018-03-30T11:28:40.479Z,994.38
2018-03-30T11:29:40.396Z,994.28
2018-03-30T11:30:40.327Z,994.23
2018-03-30T11:31:40.259Z,994.15
2018-03-30T11:32:40.190Z,994.14
2018-03-30T11:33:40.121Z,994.08
2018-03-30T11:34:40.049Z,994.17
2018-03-30T11:35:39.981Z,994.21
2018-03-30T11:36:39.925Z,994.24
2018-03-30T11:37:39.842Z,994.16
2018-03-30T11:38:39.779Z,994.06
2018-03-30T11:39:39.711Z,994.03
2018-03-30T11:40:39.633Z,994.10
2018-03-30T11:41:39.564Z,993.98
2018-03-30T11:42:39.493Z,994.05
2018-03-30T11:43:39.427Z,994.02
2018-03-30T11:44:39.371Z,994.08
2018-03-30T11:45:39.286Z,994.07
2018-03-30T11:46:39.209Z,993.93
2018-03-30T11:47:39.146Z,993.94
2018-03-30T11:48:39.075Z,993.92
2018-03-30T11:49:39.018Z,993.93
2018-03-30T11:50:38.934Z,993.94
2018-03-30T11:51:38.861Z,994.06
2018-03-30T11:52:38.795Z,993.99
2018-03-30T11:53:38.725Z,994.06
2018-03-30T11:54:38.674Z,994.04
2018-03-30T11:55:38.604Z,994.02
2018-03-30T11:56:38.519Z,993.97
2018-03-30T11:57:38.444Z,994.08
2018-03-30T11:58:38.378Z,993.93
2018-03-30T11:59:38.305Z,993.94
2018-03-30T12:00:38.233Z,993.92
2018-03-30T12:01:38.161Z,993.90
2018-03-30T12:02:38.094Z,993.88
2018-03-30T12:03:38.028Z,993.84
2018-03-30T12:04:37.944Z,993.83
2018-03-30T12:05:37.875Z,993.79
2018-03-30T12:06:37.806Z,993.73
2018-03-30T12:07:37.731Z,993.75
2018-03-30T12:08:37.661Z,993.68
2018-03-30T12:09:37.592Z,993.70
2018-03-30T12:10:37.515Z,993.66
2018-03-30T12:11:37.445Z,993.68
2018-03-30T12:12:37.381Z,993.52
2018-03-30T12:13:37.301Z,993.66
2018-03-30T12:14:37.236Z,993.72
2018-03-30T12:15:37.161Z,993.63
2018-03-30T12:16:37.083Z,993.70
2018-03-30T12:17:37.011Z,993.66
2018-03-30T12:18:36.939Z,993.73
2018-03-30T12:19:36.867Z,993.76
2018-03-30T12:20:36.792Z,993.74
2018-03-30T12:21:36.718Z,993.71
2018-03-30T12:22:36.652Z,993.70
2018-03-30T12:23:36.576Z,993.65
2018-03-30T12:24:36.505Z,993.68
2018-03-30T12:25:36.439Z,993.63
2018-03-30T12:26:36.361Z,993.59
2018-03-30T12:27:36.290Z,993.66